sensor_id;sensor_type;location;lat;lon;timestamp;P1;durP1;ratioP1;P2;durP2;ratioP2
35679;SDS011;21803;53.586;10.040;2023-06-10T04:02:02;1.85;;;1.40;;
35679;SDS011;21803;53.586;10.040;2023-06-10T04:04:29;3.30;;;1.20;;
35679;SDS011;21803;53.586;10.040;2023-06-10T04:06:55;2.30;;;1.52;;
35679;SDS011;21803;53.586;10.040;2023-06-10T04:09:21;2.63;;;1.52;;
35679;SDS011;21803;53.586;10.040;2023-06-10T04:11:47;2.05;;;1.17;;
35679;SDS011;21803;53.586;10.040;2023-06-10T04:14:13;2.35;;;1.50;;
35679;SDS011;21803;53.586;10.040;2023-06-10T04:16:38;1.50;;;1.10;;
35679;SDS011;21803;53.586;10.040;2023-06-10T04:19:04;2.92;;;1.67;;
35679;SDS011;21803;53.586;10.040;2023-06-10T04:21:29;2.03;;;1.40;;
35679;SDS011;21803;53.586;10.040;2023-06-10T04:23:55;2.42;;;1.55;;
35679;SDS011;21803;53.586;10.040;2023-06-10T04:26:20;2.63;;;1.45;;
35679;SDS011;21803;53.586;10.040;2023-06-10T04:28:47;1.95;;;1.42;;
35679;SDS011;21803;53.586;10.040;2023-06-10T04:31:12;2.55;;;1.45;;
35679;SDS011;21803;53.586;10.040;2023-06-10T04:33:38;3.05;;;1.40;;
35679;SDS011;21803;53.586;10.040;2023-06-10T04:36:03;2.80;;;1.33;;
35679;SDS011;21803;53.586;10.040;2023-06-10T04:38:31;3.50;;;1.40;;
35679;SDS011;21803;53.586;10.040;2023-06-10T04:40:57;3.50;;;1.65;;
35679;SDS011;21803;53.586;10.040;2023-06-10T04:43:22;2.92;;;1.30;;
35679;SDS011;21803;53.586;10.040;2023-06-10T04:45:48;2.78;;;1.45;;
35679;SDS011;21803;53.586;10.040;2023-06-10T04:48:13;2.47;;;1.20;;
35679;SDS011;21803;53.586;10.040;2023-06-10T04:50:39;3.05;;;1.40;;
35679;SDS011;21803;53.586;10.040;2023-06-10T04:53:04;2.20;;;1.38;;
35679;SDS011;21803;53.586;10.040;2023-06-10T04:55:31;4.20;;;1.50;;
35679;SDS011;21803;53.586;10.040;2023-06-10T04:57:58;2.85;;;1.50;;
35679;SDS011;21803;53.586;10.040;2023-06-10T05:00:23;2.95;;;1.60;;
35679;SDS011;21803;53.586;10.040;2023-06-10T05:02:49;2.85;;;1.50;;
35679;SDS011;21803;53.586;10.040;2023-06-10T05:05:15;4.32;;;1.75;;
35679;SDS011;21803;53.586;10.040;2023-06-10T05:07:44;2.42;;;1.40;;
35679;SDS011;21803;53.586;10.040;2023-06-10T05:10:10;3.15;;;1.58;;
35679;SDS011;21803;53.586;10.040;2023-06-10T05:12:37;2.47;;;1.40;;
35679;SDS011;21803;53.586;10.040;2023-06-10T05:15:06;5.95;;;1.70;;
35679;SDS011;21803;53.586;10.040;2023-06-10T05:17:32;2.67;;;1.30;;
35679;SDS011;21803;53.586;10.040;2023-06-10T05:19:58;5.55;;;1.52;;
35679;SDS011;21803;53.586;10.040;2023-06-10T05:22:23;6.72;;;2.00;;
35679;SDS011;21803;53.586;10.040;2023-06-10T05:24:49;3.63;;;2.10;;
35679;SDS011;21803;53.586;10.040;2023-06-10T05:27:16;7.43;;;1.90;;
35679;SDS011;21803;53.586;10.040;2023-06-10T05:29:42;4.10;;;1.45;;
35679;SDS011;21803;53.586;10.040;2023-06-10T05:32:07;3.45;;;1.30;;
35679;SDS011;21803;53.586;10.040;2023-06-10T05:34:33;4.50;;;1.63;;
35679;SDS011;21803;53.586;10.040;2023-06-10T05:36:59;3.45;;;1.38;;
35679;SDS011;21803;53.586;10.040;2023-06-10T05:39:24;5.25;;;1.50;;
35679;SDS011;21803;53.586;10.040;2023-06-10T05:41:50;4.63;;;1.38;;
35679;SDS011;21803;53.586;10.040;2023-06-10T05:44:16;5.00;;;1.30;;
35679;SDS011;21803;53.586;10.040;2023-06-10T05:46:41;4.15;;;1.27;;
35679;SDS011;21803;53.586;10.040;2023-06-10T05:49:07;2.92;;;1.42;;
35679;SDS011;21803;53.586;10.040;2023-06-10T05:51:32;3.83;;;1.63;;
35679;SDS011;21803;53.586;10.040;2023-06-10T05:53:58;3.80;;;1.50;;
35679;SDS011;21803;53.586;10.040;2023-06-10T05:56:23;3.33;;;1.27;;
35679;SDS011;21803;53.586;10.040;2023-06-10T05:58:49;4.32;;;1.33;;
35679;SDS011;21803;53.586;10.040;2023-06-10T06:01:15;4.50;;;1.45;;
35679;SDS011;21803;53.586;10.040;2023-06-10T06:03:40;4.00;;;1.65;;
35679;SDS011;21803;53.586;10.040;2023-06-10T06:06:06;5.70;;;1.50;;
35679;SDS011;21803;53.586;10.040;2023-06-10T06:08:31;4.55;;;1.67;;
35679;SDS011;21803;53.586;10.040;2023-06-10T06:10:57;4.38;;;1.50;;
35679;SDS011;21803;53.586;10.040;2023-06-10T06:13:23;3.33;;;1.50;;
35679;SDS011;21803;53.586;10.040;2023-06-10T06:15:49;5.75;;;1.40;;
35679;SDS011;21803;53.586;10.040;2023-06-10T06:18:15;3.55;;;1.60;;
35679;SDS011;21803;53.586;10.040;2023-06-10T06:20:41;3.08;;;1.50;;
35679;SDS011;21803;53.586;10.040;2023-06-10T06:23:06;4.60;;;1.50;;
35679;SDS011;21803;53.586;10.040;2023-06-10T06:25:34;3.83;;;1.40;;
35679;SDS011;21803;53.586;10.040;2023-06-10T06:28:01;5.72;;;1.30;;
35679;SDS011;21803;53.586;10.040;2023-06-10T06:30:26;3.13;;;1.50;;
35679;SDS011;21803;53.586;10.040;2023-06-10T06:32:52;3.88;;;1.85;;
35679;SDS011;21803;53.586;10.040;2023-06-10T06:35:18;2.80;;;1.10;;
35679;SDS011;21803;53.586;10.040;2023-06-10T06:37:43;3.30;;;1.20;;
35679;SDS011;21803;53.586;10.040;2023-06-10T06:40:09;2.35;;;1.45;;
35679;SDS011;21803;53.586;10.040;2023-06-10T06:42:35;4.35;;;1.42;;
35679;SDS011;21803;53.586;10.040;2023-06-10T06:45:00;3.90;;;1.38;;
35679;SDS011;21803;53.586;10.040;2023-06-10T06:47:26;3.30;;;1.30;;
35679;SDS011;21803;53.586;10.040;2023-06-10T06:49:52;4.60;;;1.60;;
35679;SDS011;21803;53.586;10.040;2023-06-10T06:52:17;2.50;;;1.10;;
35679;SDS011;21803;53.586;10.040;2023-06-10T06:54:44;4.03;;;1.17;;
35679;SDS011;21803;53.586;10.040;2023-06-10T06:57:09;2.63;;;1.00;;
35679;SDS011;21803;53.586;10.040;2023-06-10T06:59:35;2.65;;;1.20;;
35679;SDS011;21803;53.586;10.040;2023-06-10T07:02:01;3.28;;;1.10;;
35679;SDS011;21803;53.586;10.040;2023-06-10T07:04:27;5.50;;;1.20;;
35679;SDS011;21803;53.586;10.040;2023-06-10T07:06:52;1.98;;;1.20;;
35679;SDS011;21803;53.586;10.040;2023-06-10T07:09:18;2.88;;;1.35;;
35679;SDS011;21803;53.586;10.040;2023-06-10T07:11:43;2.45;;;1.20;;
35679;SDS011;21803;53.586;10.040;2023-06-10T07:14:09;2.40;;;0.90;;
35679;SDS011;21803;53.586;10.040;2023-06-10T07:16:34;2.03;;;1.33;;
35679;SDS011;21803;53.586;10.040;2023-06-10T07:19:00;3.63;;;1.35;;
35679;SDS011;21803;53.586;10.040;2023-06-10T07:21:25;3.47;;;1.00;;
35679;SDS011;21803;53.586;10.040;2023-06-10T07:23:53;2.67;;;1.20;;
35679;SDS011;21803;53.586;10.040;2023-06-10T07:26:19;2.97;;;1.20;;
35679;SDS011;21803;53.586;10.040;2023-06-10T07:28:46;3.08;;;1.27;;
35679;SDS011;21803;53.586;10.040;2023-06-10T07:31:12;4.82;;;1.45;;
35679;SDS011;21803;53.586;10.040;2023-06-10T07:33:37;2.00;;;1.15;;
35679;SDS011;21803;53.586;10.040;2023-06-10T07:36:06;2.13;;;1.23;;
35679;SDS011;21803;53.586;10.040;2023-06-10T07:38:32;3.42;;;1.10;;
35679;SDS011;21803;53.586;10.040;2023-06-10T07:40:58;2.42;;;1.20;;
35679;SDS011;21803;53.586;10.040;2023-06-10T07:43:23;2.83;;;1.30;;
35679;SDS011;21803;53.586;10.040;2023-06-10T07:45:49;2.28;;;1.30;;
35679;SDS011;21803;53.586;10.040;2023-06-10T07:48:15;4.05;;;1.40;;
35679;SDS011;21803;53.586;10.040;2023-06-10T07:50:40;2.45;;;1.50;;
35679;SDS011;21803;53.586;10.040;2023-06-10T07:53:06;1.85;;;1.10;;
35679;SDS011;21803;53.586;10.040;2023-06-10T07:55:32;2.33;;;1.20;;
35679;SDS011;21803;53.586;10.040;2023-06-10T07:57:57;4.95;;;1.48;;
35679;SDS011;21803;53.586;10.040;2023-06-10T08:00:23;4.38;;;1.60;;
35679;SDS011;21803;53.586;10.040;2023-06-10T08:02:49;4.07;;;1.40;;
35679;SDS011;21803;53.586;10.040;2023-06-10T08:05:15;4.03;;;1.20;;
35679;SDS011;21803;53.586;10.040;2023-06-10T08:07:41;5.05;;;1.40;;
35679;SDS011;21803;53.586;10.040;2023-06-10T08:10:06;2.38;;;1.30;;
35679;SDS011;21803;53.586;10.040;2023-06-10T08:12:33;2.55;;;1.35;;
35679;SDS011;21803;53.586;10.040;2023-06-10T08:14:59;2.28;;;1.30;;
35679;SDS011;21803;53.586;10.040;2023-06-10T08:17:25;1.50;;;1.20;;
35679;SDS011;21803;53.586;10.040;2023-06-10T08:19:51;3.25;;;1.30;;
35679;SDS011;21803;53.586;10.040;2023-06-10T08:22:16;3.25;;;1.40;;
35679;SDS011;21803;53.586;10.040;2023-06-10T08:24:43;3.33;;;1.70;;
35679;SDS011;21803;53.586;10.040;2023-06-10T08:27:08;3.35;;;1.45;;
35679;SDS011;21803;53.586;10.040;2023-06-10T08:29:35;4.00;;;1.63;;
35679;SDS011;21803;53.586;10.040;2023-06-10T08:32:00;2.60;;;1.63;;
35679;SDS011;21803;53.586;10.040;2023-06-10T08:34:26;1.83;;;1.40;;
35679;SDS011;21803;53.586;10.040;2023-06-10T08:36:51;1.90;;;1.40;;
35679;SDS011;21803;53.586;10.040;2023-06-10T08:39:20;2.45;;;1.27;;
35679;SDS011;21803;53.586;10.040;2023-06-10T08:41:50;4.68;;;1.40;;
35679;SDS011;21803;53.586;10.040;2023-06-10T08:44:29;4.60;;;1.40;;
35679;SDS011;21803;53.586;10.040;2023-06-10T08:46:58;2.63;;;1.73;;
35679;SDS011;21803;53.586;10.040;2023-06-10T08:49:26;2.35;;;1.58;;
35679;SDS011;21803;53.586;10.040;2023-06-10T08:52:00;3.38;;;1.52;;
35679;SDS011;21803;53.586;10.040;2023-06-10T08:54:30;3.38;;;1.70;;
35679;SDS011;21803;53.586;10.040;2023-06-10T08:56:59;3.97;;;1.58;;
35679;SDS011;21803;53.586;10.040;2023-06-10T08:59:28;3.95;;;1.60;;
35679;SDS011;21803;53.586;10.040;2023-06-10T09:01:54;3.03;;;1.65;;
35679;SDS011;21803;53.586;10.040;2023-06-10T09:04:20;3.90;;;1.65;;
35679;SDS011;21803;53.586;10.040;2023-06-10T09:06:45;4.38;;;1.83;;
35679;SDS011;21803;53.586;10.040;2023-06-10T09:09:12;2.95;;;1.67;;
35679;SDS011;21803;53.586;10.040;2023-06-10T09:11:40;2.88;;;1.65;;
35679;SDS011;21803;53.586;10.040;2023-06-10T09:14:07;2.75;;;1.45;;
35679;SDS011;21803;53.586;10.040;2023-06-10T09:16:32;2.22;;;1.40;;
35679;SDS011;21803;53.586;10.040;2023-06-10T09:18:58;2.83;;;1.40;;
35679;SDS011;21803;53.586;10.040;2023-06-10T09:21:24;3.13;;;1.30;;
35679;SDS011;21803;53.586;10.040;2023-06-10T09:23:50;4.28;;;1.85;;
35679;SDS011;21803;53.586;10.040;2023-06-10T09:26:17;2.28;;;1.50;;
35679;SDS011;21803;53.586;10.040;2023-06-10T09:28:43;2.75;;;1.52;;
35679;SDS011;21803;53.586;10.040;2023-06-10T09:31:12;3.08;;;1.58;;
35679;SDS011;21803;53.586;10.040;2023-06-10T09:33:39;2.95;;;1.50;;
35679;SDS011;21803;53.586;10.040;2023-06-10T09:36:05;3.05;;;1.58;;
35679;SDS011;21803;53.586;10.040;2023-06-10T09:38:31;2.58;;;1.60;;
35679;SDS011;21803;53.586;10.040;2023-06-10T09:40:58;6.70;;;2.35;;
35679;SDS011;21803;53.586;10.040;2023-06-10T09:43:42;5.40;;;1.75;;
35679;SDS011;21803;53.586;10.040;2023-06-10T09:46:18;3.13;;;1.80;;
35679;SDS011;21803;53.586;10.040;2023-06-10T09:48:45;3.33;;;1.80;;
35679;SDS011;21803;53.586;10.040;2023-06-10T09:51:12;3.15;;;1.65;;
35679;SDS011;21803;53.586;10.040;2023-06-10T09:53:38;3.35;;;1.92;;
35679;SDS011;21803;53.586;10.040;2023-06-10T09:56:04;2.60;;;1.60;;
35679;SDS011;21803;53.586;10.040;2023-06-10T09:58:37;3.92;;;1.83;;
35679;SDS011;21803;53.586;10.040;2023-06-10T10:01:11;3.55;;;1.58;;
35679;SDS011;21803;53.586;10.040;2023-06-10T10:03:47;2.40;;;1.83;;
35679;SDS011;21803;53.586;10.040;2023-06-10T10:06:16;4.43;;;1.70;;
35679;SDS011;21803;53.586;10.040;2023-06-10T10:08:43;2.55;;;1.55;;
35679;SDS011;21803;53.586;10.040;2023-06-10T10:11:10;3.03;;;1.70;;
35679;SDS011;21803;53.586;10.040;2023-06-10T10:13:36;2.58;;;1.65;;
35679;SDS011;21803;53.586;10.040;2023-06-10T10:16:14;2.60;;;1.77;;
35679;SDS011;21803;53.586;10.040;2023-06-10T10:18:41;5.00;;;1.88;;
35679;SDS011;21803;53.586;10.040;2023-06-10T10:21:14;2.20;;;1.50;;
35679;SDS011;21803;53.586;10.040;2023-06-10T10:24:01;4.00;;;2.05;;
35679;SDS011;21803;53.586;10.040;2023-06-10T10:26:32;3.15;;;1.80;;
35679;SDS011;21803;53.586;10.040;2023-06-10T10:29:16;3.00;;;1.65;;
35679;SDS011;21803;53.586;10.040;2023-06-10T10:31:50;2.97;;;1.80;;
35679;SDS011;21803;53.586;10.040;2023-06-10T10:34:30;2.65;;;1.70;;
35679;SDS011;21803;53.586;10.040;2023-06-10T10:36:58;2.08;;;1.50;;
35679;SDS011;21803;53.586;10.040;2023-06-10T10:39:24;3.83;;;1.73;;
35679;SDS011;21803;53.586;10.040;2023-06-10T10:41:53;4.55;;;1.40;;
35679;SDS011;21803;53.586;10.040;2023-06-10T10:44:19;3.30;;;2.20;;
35679;SDS011;21803;53.586;10.040;2023-06-10T10:46:49;2.50;;;1.88;;
35679;SDS011;21803;53.586;10.040;2023-06-10T10:49:15;2.95;;;1.70;;
35679;SDS011;21803;53.586;10.040;2023-06-10T10:51:53;2.70;;;2.10;;
35679;SDS011;21803;53.586;10.040;2023-06-10T10:54:27;3.70;;;1.75;;
35679;SDS011;21803;53.586;10.040;2023-06-10T11:02:17;3.08;;;1.83;;
35679;SDS011;21803;53.586;10.040;2023-06-10T11:04:47;4.38;;;2.13;;
35679;SDS011;21803;53.586;10.040;2023-06-10T11:07:13;4.57;;;2.00;;
35679;SDS011;21803;53.586;10.040;2023-06-10T11:10:28;3.10;;;1.75;;
35679;SDS011;21803;53.586;10.040;2023-06-10T11:13:10;3.28;;;1.70;;
35679;SDS011;21803;53.586;10.040;2023-06-10T11:15:33;3.85;;;1.80;;
35679;SDS011;21803;53.586;10.040;2023-06-10T11:18:12;2.97;;;1.80;;
35679;SDS011;21803;53.586;10.040;2023-06-10T11:20:58;3.33;;;1.73;;
35679;SDS011;21803;53.586;10.040;2023-06-10T11:28:41;2.42;;;1.80;;
35679;SDS011;21803;53.586;10.040;2023-06-10T11:33:55;5.40;;;1.92;;
35679;SDS011;21803;53.586;10.040;2023-06-10T11:36:22;4.75;;;1.85;;
35679;SDS011;21803;53.586;10.040;2023-06-10T11:38:49;2.75;;;2.10;;
35679;SDS011;21803;53.586;10.040;2023-06-10T11:41:18;3.53;;;1.92;;
35679;SDS011;21803;53.586;10.040;2023-06-10T11:43:44;3.17;;;2.03;;
35679;SDS011;21803;53.586;10.040;2023-06-10T11:46:10;4.25;;;1.98;;
35679;SDS011;21803;53.586;10.040;2023-06-10T11:48:36;4.07;;;2.05;;
35679;SDS011;21803;53.586;10.040;2023-06-10T11:51:08;5.55;;;1.98;;
35679;SDS011;21803;53.586;10.040;2023-06-10T11:53:34;3.30;;;2.22;;
35679;SDS011;21803;53.586;10.040;2023-06-10T11:56:00;3.25;;;1.98;;
35679;SDS011;21803;53.586;10.040;2023-06-10T11:58:25;4.85;;;1.90;;
35679;SDS011;21803;53.586;10.040;2023-06-10T12:00:55;4.68;;;2.25;;
35679;SDS011;21803;53.586;10.040;2023-06-10T12:03:26;3.47;;;2.40;;
35679;SDS011;21803;53.586;10.040;2023-06-10T12:06:01;4.93;;;2.22;;
35679;SDS011;21803;53.586;10.040;2023-06-10T12:08:28;4.85;;;2.42;;
35679;SDS011;21803;53.586;10.040;2023-06-10T12:10:55;3.83;;;2.35;;
35679;SDS011;21803;53.586;10.040;2023-06-10T12:13:21;4.55;;;2.33;;
35679;SDS011;21803;53.586;10.040;2023-06-10T12:15:48;2.97;;;2.20;;
35679;SDS011;21803;53.586;10.040;2023-06-10T12:18:17;3.92;;;2.30;;
35679;SDS011;21803;53.586;10.040;2023-06-10T12:20:46;4.45;;;2.28;;
35679;SDS011;21803;53.586;10.040;2023-06-10T12:23:13;3.45;;;2.35;;
35679;SDS011;21803;53.586;10.040;2023-06-10T12:25:47;2.65;;;1.92;;
35679;SDS011;21803;53.586;10.040;2023-06-10T12:28:21;4.82;;;2.53;;
35679;SDS011;21803;53.586;10.040;2023-06-10T12:30:47;3.08;;;1.98;;
35679;SDS011;21803;53.586;10.040;2023-06-10T12:33:16;2.85;;;2.33;;
35679;SDS011;21803;53.586;10.040;2023-06-10T12:35:46;5.47;;;2.25;;
35679;SDS011;21803;53.586;10.040;2023-06-10T12:38:20;4.45;;;2.40;;
35679;SDS011;21803;53.586;10.040;2023-06-10T12:40:52;2.90;;;2.22;;
35679;SDS011;21803;53.586;10.040;2023-06-10T12:43:22;3.90;;;2.67;;
35679;SDS011;21803;53.586;10.040;2023-06-10T12:45:51;3.47;;;2.42;;
35679;SDS011;21803;53.586;10.040;2023-06-10T12:48:22;5.72;;;2.80;;
35679;SDS011;21803;53.586;10.040;2023-06-10T12:50:52;2.60;;;2.28;;
35679;SDS011;21803;53.586;10.040;2023-06-10T12:53:22;4.88;;;2.25;;
35679;SDS011;21803;53.586;10.040;2023-06-10T12:55:49;3.50;;;2.22;;
35679;SDS011;21803;53.586;10.040;2023-06-10T12:58:15;3.25;;;2.00;;
35679;SDS011;21803;53.586;10.040;2023-06-10T13:00:41;4.55;;;2.55;;
35679;SDS011;21803;53.586;10.040;2023-06-10T13:03:07;4.38;;;2.03;;
35679;SDS011;21803;53.586;10.040;2023-06-10T13:05:37;3.95;;;2.25;;
35679;SDS011;21803;53.586;10.040;2023-06-10T13:08:07;5.45;;;2.67;;
35679;SDS011;21803;53.586;10.040;2023-06-10T13:10:35;5.28;;;2.50;;
35679;SDS011;21803;53.586;10.040;2023-06-10T13:13:01;2.88;;;2.15;;
35679;SDS011;21803;53.586;10.040;2023-06-10T13:15:30;4.50;;;2.53;;
35679;SDS011;21803;53.586;10.040;2023-06-10T13:17:55;3.90;;;2.22;;
35679;SDS011;21803;53.586;10.040;2023-06-10T13:20:21;3.25;;;2.38;;
35679;SDS011;21803;53.586;10.040;2023-06-10T13:22:46;3.65;;;2.60;;
35679;SDS011;21803;53.586;10.040;2023-06-10T13:25:12;2.63;;;2.25;;
35679;SDS011;21803;53.586;10.040;2023-06-10T13:27:38;3.72;;;2.30;;
35679;SDS011;21803;53.586;10.040;2023-06-10T13:30:04;4.65;;;2.67;;
35679;SDS011;21803;53.586;10.040;2023-06-10T13:32:31;4.57;;;2.60;;
35679;SDS011;21803;53.586;10.040;2023-06-10T13:34:56;3.65;;;2.42;;
35679;SDS011;21803;53.586;10.040;2023-06-10T13:37:22;3.00;;;2.33;;
35679;SDS011;21803;53.586;10.040;2023-06-10T13:39:47;4.53;;;2.40;;
35679;SDS011;21803;53.586;10.040;2023-06-10T13:42:15;3.80;;;2.22;;
35679;SDS011;21803;53.586;10.040;2023-06-10T13:44:44;4.00;;;2.67;;
35679;SDS011;21803;53.586;10.040;2023-06-10T13:47:09;5.03;;;2.63;;
35679;SDS011;21803;53.586;10.040;2023-06-10T13:49:35;3.40;;;2.38;;
35679;SDS011;21803;53.586;10.040;2023-06-10T13:52:01;4.68;;;2.50;;
35679;SDS011;21803;53.586;10.040;2023-06-10T13:54:27;3.20;;;2.47;;
35679;SDS011;21803;53.586;10.040;2023-06-10T13:56:53;3.03;;;2.30;;
35679;SDS011;21803;53.586;10.040;2023-06-10T13:59:19;4.13;;;2.88;;
35679;SDS011;21803;53.586;10.040;2023-06-10T14:01:45;3.00;;;2.17;;
35679;SDS011;21803;53.586;10.040;2023-06-10T14:04:11;4.00;;;2.38;;
35679;SDS011;21803;53.586;10.040;2023-06-10T14:06:36;3.22;;;2.30;;
35679;SDS011;21803;53.586;10.040;2023-06-10T14:09:02;3.03;;;2.30;;
35679;SDS011;21803;53.586;10.040;2023-06-10T14:11:28;3.10;;;2.28;;
35679;SDS011;21803;53.586;10.040;2023-06-10T14:13:53;5.07;;;2.33;;
35679;SDS011;21803;53.586;10.040;2023-06-10T14:16:21;3.53;;;2.05;;
35679;SDS011;21803;53.586;10.040;2023-06-10T14:18:46;4.03;;;2.80;;
35679;SDS011;21803;53.586;10.040;2023-06-10T14:21:12;3.33;;;2.20;;
35679;SDS011;21803;53.586;10.040;2023-06-10T14:23:37;4.50;;;2.53;;
35679;SDS011;21803;53.586;10.040;2023-06-10T14:26:03;3.38;;;2.03;;
35679;SDS011;21803;53.586;10.040;2023-06-10T14:28:30;3.33;;;2.40;;
35679;SDS011;21803;53.586;10.040;2023-06-10T14:30:56;3.17;;;2.10;;
35679;SDS011;21803;53.586;10.040;2023-06-10T14:33:22;3.65;;;2.10;;
35679;SDS011;21803;53.586;10.040;2023-06-10T14:35:48;4.25;;;2.40;;
35679;SDS011;21803;53.586;10.040;2023-06-10T14:38:13;3.53;;;2.10;;
35679;SDS011;21803;53.586;10.040;2023-06-10T14:40:39;2.75;;;1.90;;
35679;SDS011;21803;53.586;10.040;2023-06-10T14:43:04;3.58;;;2.20;;
35679;SDS011;21803;53.586;10.040;2023-06-10T14:45:35;3.17;;;1.90;;
35679;SDS011;21803;53.586;10.040;2023-06-10T14:48:06;3.47;;;2.15;;
35679;SDS011;21803;53.586;10.040;2023-06-10T14:50:34;3.10;;;2.20;;
35679;SDS011;21803;53.586;10.040;2023-06-10T14:53:00;4.35;;;2.00;;
35679;SDS011;21803;53.586;10.040;2023-06-10T14:55:25;4.00;;;2.33;;
35679;SDS011;21803;53.586;10.040;2023-06-10T14:57:51;3.20;;;2.25;;
35679;SDS011;21803;53.586;10.040;2023-06-10T15:00:17;3.55;;;2.05;;
35679;SDS011;21803;53.586;10.040;2023-06-10T15:02:47;3.78;;;2.38;;
35679;SDS011;21803;53.586;10.040;2023-06-10T15:05:13;3.42;;;2.22;;
35679;SDS011;21803;53.586;10.040;2023-06-10T15:07:40;2.60;;;1.83;;
35679;SDS011;21803;53.586;10.040;2023-06-10T15:10:06;4.22;;;2.20;;
35679;SDS011;21803;53.586;10.040;2023-06-10T15:12:31;4.50;;;2.30;;
35679;SDS011;21803;53.586;10.040;2023-06-10T15:14:57;3.97;;;2.03;;
35679;SDS011;21803;53.586;10.040;2023-06-10T15:17:22;3.25;;;2.30;;
35679;SDS011;21803;53.586;10.040;2023-06-10T15:19:48;3.92;;;2.47;;
35679;SDS011;21803;53.586;10.040;2023-06-10T15:22:13;3.22;;;2.20;;
35679;SDS011;21803;53.586;10.040;2023-06-10T15:24:39;3.97;;;2.42;;
35679;SDS011;21803;53.586;10.040;2023-06-10T15:27:05;3.67;;;2.30;;
35679;SDS011;21803;53.586;10.040;2023-06-10T15:29:31;4.05;;;2.15;;
35679;SDS011;21803;53.586;10.040;2023-06-10T15:31:56;3.15;;;2.10;;
35679;SDS011;21803;53.586;10.040;2023-06-10T15:34:22;5.50;;;2.40;;
35679;SDS011;21803;53.586;10.040;2023-06-10T15:36:47;4.63;;;2.33;;
35679;SDS011;21803;53.586;10.040;2023-06-10T15:39:13;2.58;;;1.92;;
35679;SDS011;21803;53.586;10.040;2023-06-10T15:41:38;3.38;;;1.90;;
35679;SDS011;21803;53.586;10.040;2023-06-10T15:44:04;4.13;;;2.08;;
35679;SDS011;21803;53.586;10.040;2023-06-10T15:46:29;4.35;;;2.10;;
35679;SDS011;21803;53.586;10.040;2023-06-10T15:48:55;3.45;;;2.05;;
35679;SDS011;21803;53.586;10.040;2023-06-10T15:51:21;4.03;;;2.20;;
35679;SDS011;21803;53.586;10.040;2023-06-10T15:53:48;3.83;;;2.17;;
35679;SDS011;21803;53.586;10.040;2023-06-10T15:56:13;4.05;;;2.10;;
35679;SDS011;21803;53.586;10.040;2023-06-10T15:58:40;2.92;;;2.30;;
35679;SDS011;21803;53.586;10.040;2023-06-10T16:01:05;5.65;;;2.40;;
35679;SDS011;21803;53.586;10.040;2023-06-10T16:03:33;3.97;;;2.50;;
35679;SDS011;21803;53.586;10.040;2023-06-10T16:05:58;3.00;;;2.30;;
35679;SDS011;21803;53.586;10.040;2023-06-10T16:08:24;3.00;;;1.90;;
35679;SDS011;21803;53.586;10.040;2023-06-10T16:10:49;4.40;;;2.13;;
35679;SDS011;21803;53.586;10.040;2023-06-10T16:13:15;4.22;;;2.50;;
35679;SDS011;21803;53.586;10.040;2023-06-10T16:15:41;3.05;;;1.95;;
35679;SDS011;21803;53.586;10.040;2023-06-10T16:18:06;3.50;;;2.17;;
35679;SDS011;21803;53.586;10.040;2023-06-10T16:20:32;3.00;;;1.80;;
35679;SDS011;21803;53.586;10.040;2023-06-10T16:23:00;3.03;;;1.98;;
35679;SDS011;21803;53.586;10.040;2023-06-10T16:25:29;3.67;;;2.13;;
35679;SDS011;21803;53.586;10.040;2023-06-10T16:27:55;3.17;;;2.00;;
35679;SDS011;21803;53.586;10.040;2023-06-10T16:30:21;3.17;;;2.03;;
35679;SDS011;21803;53.586;10.040;2023-06-10T16:32:46;2.78;;;2.20;;
35679;SDS011;21803;53.586;10.040;2023-06-10T16:35:12;3.22;;;1.88;;
35679;SDS011;21803;53.586;10.040;2023-06-10T16:37:37;4.00;;;2.20;;
35679;SDS011;21803;53.586;10.040;2023-06-10T16:40:03;3.85;;;2.00;;
35679;SDS011;21803;53.586;10.040;2023-06-10T16:42:29;3.38;;;1.95;;
35679;SDS011;21803;53.586;10.040;2023-06-10T16:44:54;3.30;;;1.98;;
35679;SDS011;21803;53.586;10.040;2023-06-10T16:47:20;3.55;;;2.42;;
35679;SDS011;21803;53.586;10.040;2023-06-10T16:49:45;2.40;;;1.90;;
35679;SDS011;21803;53.586;10.040;2023-06-10T16:52:11;3.50;;;2.05;;
35679;SDS011;21803;53.586;10.040;2023-06-10T16:54:36;3.85;;;2.30;;
35679;SDS011;21803;53.586;10.040;2023-06-10T16:57:02;2.53;;;1.80;;
35679;SDS011;21803;53.586;10.040;2023-06-10T16:59:28;2.78;;;1.88;;
35679;SDS011;21803;53.586;10.040;2023-06-10T17:01:53;3.38;;;2.00;;
35679;SDS011;21803;53.586;10.040;2023-06-10T17:04:19;2.85;;;2.13;;
35679;SDS011;21803;53.586;10.040;2023-06-10T17:09:12;5.22;;;2.03;;
35679;SDS011;21803;53.586;10.040;2023-06-10T17:11:37;3.58;;;2.20;;
35679;SDS011;21803;53.586;10.040;2023-06-10T17:14:03;4.95;;;2.65;;
35679;SDS011;21803;53.586;10.040;2023-06-10T17:16:28;4.30;;;2.28;;
35679;SDS011;21803;53.586;10.040;2023-06-10T17:18:54;3.85;;;2.05;;
35679;SDS011;21803;53.586;10.040;2023-06-10T17:21:20;4.32;;;1.90;;
35679;SDS011;21803;53.586;10.040;2023-06-10T17:23:45;3.92;;;2.25;;
35679;SDS011;21803;53.586;10.040;2023-06-10T17:26:11;3.03;;;2.10;;
35679;SDS011;21803;53.586;10.040;2023-06-10T17:28:36;4.80;;;2.45;;
35679;SDS011;21803;53.586;10.040;2023-06-10T17:31:02;4.55;;;2.17;;
35679;SDS011;21803;53.586;10.040;2023-06-10T17:33:27;5.35;;;2.17;;
35679;SDS011;21803;53.586;10.040;2023-06-10T17:35:53;4.72;;;2.13;;
35679;SDS011;21803;53.586;10.040;2023-06-10T17:38:18;5.32;;;2.25;;
35679;SDS011;21803;53.586;10.040;2023-06-10T17:40:45;3.28;;;2.10;;
35679;SDS011;21803;53.586;10.040;2023-06-10T17:43:11;3.80;;;2.08;;
35679;SDS011;21803;53.586;10.040;2023-06-10T17:45:37;3.75;;;2.13;;
35679;SDS011;21803;53.586;10.040;2023-06-10T17:48:02;4.03;;;1.90;;
35679;SDS011;21803;53.586;10.040;2023-06-10T17:50:28;5.32;;;2.40;;
35679;SDS011;21803;53.586;10.040;2023-06-10T17:52:54;5.32;;;2.50;;
35679;SDS011;21803;53.586;10.040;2023-06-10T17:55:19;4.30;;;2.25;;
35679;SDS011;21803;53.586;10.040;2023-06-10T17:57:45;3.70;;;2.50;;
35679;SDS011;21803;53.586;10.040;2023-06-10T18:00:11;3.72;;;2.10;;
35679;SDS011;21803;53.586;10.040;2023-06-10T18:02:37;3.75;;;2.10;;
35679;SDS011;21803;53.586;10.040;2023-06-10T18:05:03;4.30;;;2.20;;
35679;SDS011;21803;53.586;10.040;2023-06-10T18:07:28;3.53;;;2.38;;
35679;SDS011;21803;53.586;10.040;2023-06-10T18:09:54;3.08;;;2.33;;
35679;SDS011;21803;53.586;10.040;2023-06-10T18:12:20;5.88;;;2.45;;
35679;SDS011;21803;53.586;10.040;2023-06-10T18:14:46;5.18;;;2.72;;
35679;SDS011;21803;53.586;10.040;2023-06-10T18:17:11;4.13;;;2.22;;
35679;SDS011;21803;53.586;10.040;2023-06-10T18:19:37;4.72;;;2.50;;
35679;SDS011;21803;53.586;10.040;2023-06-10T18:22:03;3.88;;;2.22;;
35679;SDS011;21803;53.586;10.040;2023-06-10T18:24:29;7.07;;;2.20;;
35679;SDS011;21803;53.586;10.040;2023-06-10T18:26:55;4.32;;;2.35;;
35679;SDS011;21803;53.586;10.040;2023-06-10T18:29:21;4.22;;;2.60;;
35679;SDS011;21803;53.586;10.040;2023-06-10T18:31:46;3.53;;;2.22;;
35679;SDS011;21803;53.586;10.040;2023-06-10T18:34:12;5.22;;;2.28;;
35679;SDS011;21803;53.586;10.040;2023-06-10T18:36:37;7.28;;;2.80;;
35679;SDS011;21803;53.586;10.040;2023-06-10T18:39:03;3.83;;;2.33;;
35679;SDS011;21803;53.586;10.040;2023-06-10T18:41:28;5.50;;;2.22;;
35679;SDS011;21803;53.586;10.040;2023-06-10T18:43:54;4.82;;;2.25;;
35679;SDS011;21803;53.586;10.040;2023-06-10T18:46:20;4.90;;;2.63;;
35679;SDS011;21803;53.586;10.040;2023-06-10T18:48:46;5.53;;;2.40;;